sensor_id;sensor_type;location;lat;lon;timestamp;pressure;altitude;pressure_sealevel;temperature;humidity
24234;BME280;12365;43.554;1.388;2023-02-15T00:01:32;100920.06;;;11.98;57.67
24234;BME280;12365;43.554;1.388;2023-02-15T00:03:58;100922.78;;;11.99;57.58
24234;BME280;12365;43.554;1.388;2023-02-15T00:06:23;100912.13;;;11.96;57.81
24234;BME280;12365;43.554;1.388;2023-02-15T00:08:49;100912.03;;;11.95;57.83
24234;BME280;12365;43.554;1.388;2023-02-15T00:11:17;100913.75;;;11.94;57.83
24234;BME280;12365;43.554;1.388;2023-02-15T00:14:04;100916.28;;;11.92;58.03
24234;BME280;12365;43.554;1.388;2023-02-15T00:16:30;100918.78;;;11.91;57.81
24234;BME280;12365;43.554;1.388;2023-02-15T00:18:56;100917.91;;;11.90;57.95
24234;BME280;12365;43.554;1.388;2023-02-15T00:21:21;100917.78;;;11.89;57.82
24234;BME280;12365;43.554;1.388;2023-02-15T00:23:47;100921.22;;;11.88;57.99
24234;BME280;12365;43.554;1.388;2023-02-15T00:26:12;100922.19;;;11.90;58.03
24234;BME280;12365;43.554;1.388;2023-02-15T00:28:38;100920.41;;;11.89;57.92
24234;BME280;12365;43.554;1.388;2023-02-15T00:31:09;100920.28;;;11.87;58.40
24234;BME280;12365;43.554;1.388;2023-02-15T00:33:36;100919.00;;;11.81;58.37
24234;BME280;12365;43.554;1.388;2023-02-15T00:36:03;100908.63;;;11.82;58.32
24234;BME280;12365;43.554;1.388;2023-02-15T00:38:30;100915.69;;;11.83;58.43
24234;BME280;12365;43.554;1.388;2023-02-15T00:40:57;100915.50;;;11.80;58.28
24234;BME280;12365;43.554;1.388;2023-02-15T00:43:22;100912.78;;;11.79;58.53
24234;BME280;12365;43.554;1.388;2023-02-15T00:45:48;100911.16;;;11.81;58.46
24234;BME280;12365;43.554;1.388;2023-02-15T00:48:13;100910.16;;;11.79;58.27
24234;BME280;12365;43.554;1.388;2023-02-15T00:50:39;100911.94;;;11.80;58.71
24234;BME280;12365;43.554;1.388;2023-02-15T00:53:04;100904.09;;;11.80;58.49
24234;BME280;12365;43.554;1.388;2023-02-15T00:55:30;100909.34;;;11.80;58.53
24234;BME280;12365;43.554;1.388;2023-02-15T00:57:55;100901.41;;;11.78;58.47
24234;BME280;12365;43.554;1.388;2023-02-15T01:00:21;100900.53;;;11.78;58.68
24234;BME280;12365;43.554;1.388;2023-02-15T01:02:46;100898.69;;;11.77;58.81
24234;BME280;12365;43.554;1.388;2023-02-15T01:05:12;100899.41;;;11.74;58.72
24234;BME280;12365;43.554;1.388;2023-02-15T01:07:38;100897.63;;;11.73;58.58
24234;BME280;12365;43.554;1.388;2023-02-15T01:10:05;100903.75;;;11.74;58.73
24234;BME280;12365;43.554;1.388;2023-02-15T01:12:33;100903.75;;;11.74;58.83
24234;BME280;12365;43.554;1.388;2023-02-15T01:14:59;100901.13;;;11.74;58.74
24234;BME280;12365;43.554;1.388;2023-02-15T01:17:25;100900.13;;;11.71;58.73
24234;BME280;12365;43.554;1.388;2023-02-15T01:19:50;100902.91;;;11.75;59.03
24234;BME280;12365;43.554;1.388;2023-02-15T01:22:17;100901.25;;;11.75;59.01
24234;BME280;12365;43.554;1.388;2023-02-15T01:24:43;100900.31;;;11.75;58.97
24234;BME280;12365;43.554;1.388;2023-02-15T01:27:09;100897.69;;;11.75;58.97
24234;BME280;12365;43.554;1.388;2023-02-15T01:29:34;100907.38;;;11.76;59.05
24234;BME280;12365;43.554;1.388;2023-02-15T01:32:00;100908.97;;;11.74;58.87
24234;BME280;12365;43.554;1.388;2023-02-15T01:34:25;100908.06;;;11.73;58.98
24234;BME280;12365;43.554;1.388;2023-02-15T01:36:50;100915.03;;;11.73;59.16
24234;BME280;12365;43.554;1.388;2023-02-15T01:39:16;100920.16;;;11.71;59.12
24234;BME280;12365;43.554;1.388;2023-02-15T01:41:41;100914.03;;;11.70;59.29
24234;BME280;12365;43.554;1.388;2023-02-15T01:47:12;100915.44;;;11.65;59.10
24234;BME280;12365;43.554;1.388;2023-02-15T01:49:39;100910.94;;;11.63;59.30
24234;BME280;12365;43.554;1.388;2023-02-15T01:52:07;100921.38;;;11.63;59.16
24234;BME280;12365;43.554;1.388;2023-02-15T01:54:35;100915.16;;;11.61;59.29
24234;BME280;12365;43.554;1.388;2023-02-15T01:57:05;100911.66;;;11.60;59.44
24234;BME280;12365;43.554;1.388;2023-02-15T01:59:35;100911.47;;;11.57;59.44
24234;BME280;12365;43.554;1.388;2023-02-15T02:02:03;100897.56;;;11.58;59.56
24234;BME280;12365;43.554;1.388;2023-02-15T02:04:48;100901.00;;;11.57;59.65
24234;BME280;12365;43.554;1.388;2023-02-15T02:07:15;100905.31;;;11.57;59.76
24234;BME280;12365;43.554;1.388;2023-02-15T02:09:42;100894.97;;;11.58;59.44
24234;BME280;12365;43.554;1.388;2023-02-15T02:12:09;100899.28;;;11.58;59.74
24234;BME280;12365;43.554;1.388;2023-02-15T02:14:35;100901.78;;;11.56;59.47
24234;BME280;12365;43.554;1.388;2023-02-15T02:17:17;100889.63;;;11.57;59.41
24234;BME280;12365;43.554;1.388;2023-02-15T02:23:30;100891.34;;;11.56;59.94
24234;BME280;12365;43.554;1.388;2023-02-15T02:35:12;100888.38;;;11.50;59.76
24234;BME280;12365;43.554;1.388;2023-02-15T02:37:54;100893.59;;;11.50;59.82
24234;BME280;12365;43.554;1.388;2023-02-15T02:46:00;100887.25;;;11.46;59.86
24234;BME280;12365;43.554;1.388;2023-02-15T02:48:32;100880.13;;;11.44;59.93
24234;BME280;12365;43.554;1.388;2023-02-15T02:50:58;100875.63;;;11.41;59.95
24234;BME280;12365;43.554;1.388;2023-02-15T02:53:24;100875.53;;;11.40;60.06
24234;BME280;12365;43.554;1.388;2023-02-15T02:55:56;100878.03;;;11.38;60.08
24234;BME280;12365;43.554;1.388;2023-02-15T02:58:29;100867.59;;;11.38;60.23
24234;BME280;12365;43.554;1.388;2023-02-15T03:01:01;100877.94;;;11.37;60.23
24234;BME280;12365;43.554;1.388;2023-02-15T03:06:10;100866.50;;;11.35;60.32
24234;BME280;12365;43.554;1.388;2023-02-15T03:08:41;100868.31;;;11.36;60.44
24234;BME280;12365;43.554;1.388;2023-02-15T03:11:09;100867.47;;;11.37;60.62
24234;BME280;12365;43.554;1.388;2023-02-15T03:13:36;100863.06;;;11.36;60.25
24234;BME280;12365;43.554;1.388;2023-02-15T03:16:03;100855.94;;;11.33;60.36
24234;BME280;12365;43.554;1.388;2023-02-15T03:18:51;100848.13;;;11.33;60.47
24234;BME280;12365;43.554;1.388;2023-02-15T03:21:33;100844.41;;;11.30;60.41
24234;BME280;12365;43.554;1.388;2023-02-15T03:24:15;100853.16;;;11.30;60.34
24234;BME280;12365;43.554;1.388;2023-02-15T03:26:43;100852.25;;;11.30;60.48
24234;BME280;12365;43.554;1.388;2023-02-15T03:29:11;100855.66;;;11.28;60.69
24234;BME280;12365;43.554;1.388;2023-02-15T03:31:40;100853.88;;;11.27;60.67
24234;BME280;12365;43.554;1.388;2023-02-15T03:34:10;100852.88;;;11.25;60.86
24234;BME280;12365;43.554;1.388;2023-02-15T03:39:42;100850.97;;;11.23;60.60
24234;BME280;12365;43.554;1.388;2023-02-15T03:42:33;100850.84;;;11.21;60.75
24234;BME280;12365;43.554;1.388;2023-02-15T03:45:06;100852.56;;;11.21;60.57
24234;BME280;12365;43.554;1.388;2023-02-15T03:47:37;100862.13;;;11.20;60.78
24234;BME280;12365;43.554;1.388;2023-02-15T03:50:29;100861.13;;;11.18;60.79
24234;BME280;12365;43.554;1.388;2023-02-15T03:53:15;100867.16;;;11.17;60.69
24234;BME280;12365;43.554;1.388;2023-02-15T03:55:49;100877.50;;;11.16;60.84
24234;BME280;12365;43.554;1.388;2023-02-15T03:58:18;100877.41;;;11.14;60.81
24234;BME280;12365;43.554;1.388;2023-02-15T04:01:21;100868.47;;;11.11;60.78
24234;BME280;12365;43.554;1.388;2023-02-15T04:04:19;100877.13;;;11.10;60.74
24234;BME280;12365;43.554;1.388;2023-02-15T04:06:46;100873.50;;;11.07;60.68
24234;BME280;12365;43.554;1.388;2023-02-15T04:09:12;100881.22;;;11.06;61.08
24234;BME280;12365;43.554;1.388;2023-02-15T04:11:55;100882.03;;;11.05;61.04
24234;BME280;12365;43.554;1.388;2023-02-15T04:14:21;100878.44;;;11.03;60.94
24234;BME280;12365;43.554;1.388;2023-02-15T04:17:06;100879.25;;;11.02;61.18
24234;BME280;12365;43.554;1.388;2023-02-15T04:19:31;100875.50;;;10.98;61.21
24234;BME280;12365;43.554;1.388;2023-02-15T04:22:15;100890.41;;;10.99;61.11
24234;BME280;12365;43.554;1.388;2023-02-15T04:24:59;100881.44;;;10.96;61.22
24234;BME280;12365;43.554;1.388;2023-02-15T04:27:46;100892.13;;;10.99;61.06
24234;BME280;12365;43.554;1.388;2023-02-15T04:30:14;100887.69;;;10.98;61.07
24234;BME280;12365;43.554;1.388;2023-02-15T04:32:39;100891.19;;;10.98;61.16
24234;BME280;12365;43.554;1.388;2023-02-15T04:35:05;100895.50;;;10.98;61.01
24234;BME280;12365;43.554;1.388;2023-02-15T04:37:31;100888.50;;;10.97;61.02
24234;BME280;12365;43.554;1.388;2023-02-15T04:39:57;100896.91;;;10.93;61.33
24234;BME280;12365;43.554;1.388;2023-02-15T04:42:24;100895.31;;;10.95;61.43
24234;BME280;12365;43.554;1.388;2023-02-15T04:44:51;100893.50;;;10.94;61.43
24234;BME280;12365;43.554;1.388;2023-02-15T04:47:16;100893.41;;;10.92;61.36
24234;BME280;12365;43.554;1.388;2023-02-15T04:49:42;100888.59;;;10.85;61.71
24234;BME280;12365;43.554;1.388;2023-02-15T04:52:07;100885.28;;;10.88;61.44
24234;BME280;12365;43.554;1.388;2023-02-15T04:54:33;100893.13;;;10.88;61.57
24234;BME280;12365;43.554;1.388;2023-02-15T04:56:58;100890.38;;;10.86;61.50
24234;BME280;12365;43.554;1.388;2023-02-15T04:59:24;100900.25;;;10.90;61.69
24234;BME280;12365;43.554;1.388;2023-02-15T05:01:49;100889.91;;;10.92;61.48
24234;BME280;12365;43.554;1.388;2023-02-15T05:04:14;100887.91;;;10.88;61.41
24234;BME280;12365;43.554;1.388;2023-02-15T05:06:40;100894.72;;;10.85;61.44
24234;BME280;12365;43.554;1.388;2023-02-15T05:09:05;100891.09;;;10.83;61.47
24234;BME280;12365;43.554;1.388;2023-02-15T05:11:31;100890.13;;;10.81;61.57
24234;BME280;12365;43.554;1.388;2023-02-15T05:13:56;100895.41;;;10.83;61.55
24234;BME280;12365;43.554;1.388;2023-02-15T05:16:22;100891.09;;;10.83;61.78
24234;BME280;12365;43.554;1.388;2023-02-15T05:18:47;100891.09;;;10.83;61.53
24234;BME280;12365;43.554;1.388;2023-02-15T05:21:12;100888.72;;;10.87;61.81
24234;BME280;12365;43.554;1.388;2023-02-15T05:23:41;100887.69;;;10.84;61.99
24234;BME280;12365;43.554;1.388;2023-02-15T05:26:10;100892.09;;;10.85;61.97
24234;BME280;12365;43.554;1.388;2023-02-15T05:28:54;100887.69;;;10.84;61.87
24234;BME280;12365;43.554;1.388;2023-02-15T05:31:20;100892.94;;;10.84;62.00
24234;BME280;12365;43.554;1.388;2023-02-15T05:33:46;100894.72;;;10.85;61.92
24234;BME280;12365;43.554;1.388;2023-02-15T05:36:11;100885.88;;;10.83;61.69
24234;BME280;12365;43.554;1.388;2023-02-15T05:38:37;100891.91;;;10.82;61.66
24234;BME280;12365;43.554;1.388;2023-02-15T05:41:07;100888.41;;;10.82;61.77
24234;BME280;12365;43.554;1.388;2023-02-15T05:43:33;100885.09;;;10.84;62.28
24234;BME280;12365;43.554;1.388;2023-02-15T05:46:00;100883.38;;;10.85;61.89
24234;BME280;12365;43.554;1.388;2023-02-15T05:48:26;100884.38;;;10.87;61.87
24234;BME280;12365;43.554;1.388;2023-02-15T05:51:05;100887.91;;;10.88;62.16
24234;BME280;12365;43.554;1.388;2023-02-15T05:53:32;100889.69;;;10.89;61.96
24234;BME280;12365;43.554;1.388;2023-02-15T05:56:00;100891.41;;;10.88;62.00
24234;BME280;12365;43.554;1.388;2023-02-15T05:58:28;100890.69;;;10.91;62.16
24234;BME280;12365;43.554;1.388;2023-02-15T06:00:54;100888.09;;;10.91;62.05
24234;BME280;12365;43.554;1.388;2023-02-15T06:03:20;100889.09;;;10.93;62.32
24234;BME280;12365;43.554;1.388;2023-02-15T06:05:46;100883.06;;;10.94;61.96
24234;BME280;12365;43.554;1.388;2023-02-15T06:08:11;100886.59;;;10.94;61.95
24234;BME280;12365;43.554;1.388;2023-02-15T06:10:37;100895.31;;;10.95;61.85
24234;BME280;12365;43.554;1.388;2023-02-15T06:13:03;100902.16;;;10.93;62.03
24234;BME280;12365;43.554;1.388;2023-02-15T06:15:28;100890.81;;;10.92;61.96
24234;BME280;12365;43.554;1.388;2023-02-15T06:17:53;100902.16;;;10.93;62.11
24234;BME280;12365;43.554;1.388;2023-02-15T06:20:19;100905.56;;;10.92;61.95
24234;BME280;12365;43.554;1.388;2023-02-15T06:22:44;100899.41;;;10.91;62.25
24234;BME280;12365;43.554;1.388;2023-02-15T06:25:10;100900.25;;;10.90;62.41
24234;BME280;12365;43.554;1.388;2023-02-15T06:27:36;100912.41;;;10.90;62.17
24234;BME280;12365;43.554;1.388;2023-02-15T06:30:03;100917.63;;;10.90;62.46
24234;BME280;12365;43.554;1.388;2023-02-15T06:32:29;100914.19;;;10.91;62.34
24234;BME280;12365;43.554;1.388;2023-02-15T06:34:54;100916.81;;;10.91;62.04
24234;BME280;12365;43.554;1.388;2023-02-15T06:37:19;100920.22;;;10.90;62.05
24234;BME280;12365;43.554;1.388;2023-02-15T06:39:45;100919.22;;;10.88;62.08
24234;BME280;12365;43.554;1.388;2023-02-15T06:42:10;100914.00;;;10.88;62.03
24234;BME280;12365;43.554;1.388;2023-02-15T06:44:36;100919.94;;;10.85;62.09
24234;BME280;12365;43.554;1.388;2023-02-15T06:47:01;100927.06;;;10.88;62.20
24234;BME280;12365;43.554;1.388;2023-02-15T06:49:26;100918.41;;;10.89;62.45
24234;BME280;12365;43.554;1.388;2023-02-15T06:51:52;100930.69;;;10.90;62.17
24234;BME280;12365;43.554;1.388;2023-02-15T06:54:17;100935.97;;;10.91;62.22
24234;BME280;12365;43.554;1.388;2023-02-15T06:56:43;100938.59;;;10.91;62.23
24234;BME280;12365;43.554;1.388;2023-02-15T06:59:08;100930.69;;;10.90;62.44
24234;BME280;12365;43.554;1.388;2023-02-15T07:01:34;100937.69;;;10.91;62.26
24234;BME280;12365;43.554;1.388;2023-02-15T07:03:59;100945.72;;;10.94;62.44
24234;BME280;12365;43.554;1.388;2023-02-15T07:06:25;100945.72;;;10.94;62.46
24234;BME280;12365;43.554;1.388;2023-02-15T07:08:50;100945.03;;;10.96;62.40
24234;BME280;12365;43.554;1.388;2023-02-15T07:11:15;100958.28;;;10.99;62.38
24234;BME280;12365;43.554;1.388;2023-02-15T07:13:59;100963.59;;;11.01;62.50
24234;BME280;12365;43.554;1.388;2023-02-15T07:16:25;100964.00;;;11.07;62.32
24234;BME280;12365;43.554;1.388;2023-02-15T07:18:50;100965.22;;;11.12;62.21
24234;BME280;12365;43.554;1.388;2023-02-15T07:21:16;100969.03;;;11.17;62.30
24234;BME280;12365;43.554;1.388;2023-02-15T07:23:41;100963.41;;;11.24;62.34
24234;BME280;12365;43.554;1.388;2023-02-15T07:26:07;100968.88;;;11.29;62.44
24234;BME280;12365;43.554;1.388;2023-02-15T07:28:34;100977.22;;;11.37;62.24
24234;BME280;12365;43.554;1.388;2023-02-15T07:31:04;100975.72;;;11.40;62.35
24234;BME280;12365;43.554;1.388;2023-02-15T07:33:31;100976.91;;;11.45;61.84
24234;BME280;12365;43.554;1.388;2023-02-15T07:35:58;100976.50;;;11.53;61.86
24234;BME280;12365;43.554;1.388;2023-02-15T07:38:29;100978.00;;;11.62;61.80
24234;BME280;12365;43.554;1.388;2023-02-15T07:41:04;100982.00;;;11.70;61.79
24234;BME280;12365;43.554;1.388;2023-02-15T07:43:32;100983.38;;;11.79;61.72
24234;BME280;12365;43.554;1.388;2023-02-15T07:46:05;100987.28;;;11.85;61.69
24234;BME280;12365;43.554;1.388;2023-02-15T07:48:32;100995.25;;;11.87;61.54
24234;BME280;12365;43.554;1.388;2023-02-15T07:51:02;100996.81;;;11.85;61.79
24234;BME280;12365;43.554;1.388;2023-02-15T07:53:29;101007.28;;;11.85;61.55
24234;BME280;12365;43.554;1.388;2023-02-15T07:55:58;100995.84;;;11.83;61.54
24234;BME280;12365;43.554;1.388;2023-02-15T07:58:23;100998.25;;;11.80;61.73
24234;BME280;12365;43.554;1.388;2023-02-15T08:01:09;100997.25;;;11.78;61.59
24234;BME280;12365;43.554;1.388;2023-02-15T08:03:34;100991.22;;;11.79;61.66
24234;BME280;12365;43.554;1.388;2023-02-15T08:06:00;100993.00;;;11.80;61.63
24234;BME280;12365;43.554;1.388;2023-02-15T08:08:26;101003.69;;;11.83;61.81
24234;BME280;12365;43.554;1.388;2023-02-15T08:11:21;100999.56;;;11.86;61.96
24234;BME280;12365;43.554;1.388;2023-02-15T08:14:11;101000.94;;;11.95;61.55
24234;BME280;12365;43.554;1.388;2023-02-15T08:21:46;100996.09;;;12.29;61.21
24234;BME280;12365;43.554;1.388;2023-02-15T08:24:13;101004.09;;;12.32;60.97
24234;BME280;12365;43.554;1.388;2023-02-15T08:26:40;101003.28;;;12.33;61.08
24234;BME280;12365;43.554;1.388;2023-02-15T08:29:06;101002.56;;;12.35;61.32
24234;BME280;12365;43.554;1.388;2023-02-15T08:31:34;100999.00;;;12.48;61.21
24234;BME280;12365;43.554;1.388;2023-02-15T08:34:00;101000.09;;;12.67;60.91
24234;BME280;12365;43.554;1.388;2023-02-15T08:36:28;101004.78;;;12.87;60.75
24234;BME280;12365;43.554;1.388;2023-02-15T08:38:56;101007.84;;;13.10;60.50
24234;BME280;12365;43.554;1.388;2023-02-15T08:41:28;101007.28;;;13.30;60.40
24234;BME280;12365;43.554;1.388;2023-02-15T08:44:01;101009.63;;;13.40;60.25
24234;BME280;12365;43.554;1.388;2023-02-15T08:46:29;101005.06;;;13.53;59.91
24234;BME280;12365;43.554;1.388;2023-02-15T08:48:55;101012.78;;;13.66;60.05
24234;BME280;12365;43.554;1.388;2023-02-15T08:51:29;101004.13;;;13.83;59.75
24234;BME280;12365;43.554;1.388;2023-02-15T08:53:57;101013.09;;;14.03;59.73
24234;BME280;12365;43.554;1.388;2023-02-15T08:56:27;101009.44;;;14.18;59.43
24234;BME280;12365;43.554;1.388;2023-02-15T08:58:54;101012.91;;;14.33;59.06
24234;BME280;12365;43.554;1.388;2023-02-15T09:01:22;101008.47;;;14.48;59.02
24234;BME280;12365;43.554;1.388;2023-02-15T09:03:49;101016.25;;;14.63;58.81
24234;BME280;12365;43.554;1.388;2023-02-15T09:06:17;101014.94;;;14.71;58.55
24234;BME280;12365;43.554;1.388;2023-02-15T09:08:43;101022.72;;;14.70;58.38
24234;BME280;12365;43.554;1.388;2023-02-15T09:11:14;101023.31;;;14.64;58.27
24234;BME280;12365;43.554;1.388;2023-02-15T09:13:52;101026.94;;;14.66;58.34
24234;BME280;12365;43.554;1.388;2023-02-15T09:16:18;101034.47;;;14.77;58.13
24234;BME280;12365;43.554;1.388;2023-02-15T09:18:44;101028.00;;;14.88;58.07
24234;BME280;12365;43.554;1.388;2023-02-15T09:21:15;101027.97;;;15.04;57.78
24234;BME280;12365;43.554;1.388;2023-02-15T09:23:41;101019.50;;;15.28;57.75
24234;BME280;12365;43.554;1.388;2023-02-15T09:26:09;101030.25;;;15.32;57.30
24234;BME280;12365;43.554;1.388;2023-02-15T09:28:35;101034.00;;;15.37;57.08
24234;BME280;12365;43.554;1.388;2023-02-15T09:33:35;101029.84;;;15.60;56.77
24234;BME280;12365;43.554;1.388;2023-02-15T09:36:02;101027.50;;;15.67;56.60
24234;BME280;12365;43.554;1.388;2023-02-15T09:38:27;101028.81;;;15.75;56.37
24234;BME280;12365;43.554;1.388;2023-02-15T10:03:18;101038.28;;;15.53;55.46
24234;BME280;12365;43.554;1.388;2023-02-15T10:11:25;101033.28;;;15.95;54.86
24234;BME280;12365;43.554;1.388;2023-02-15T10:14:44;101032.47;;;16.16;54.14
24234;BME280;12365;43.554;1.388;2023-02-15T10:22:51;101039.13;;;16.67;53.83
24234;BME280;12365;43.554;1.388;2023-02-15T10:25:38;101042.69;;;16.87;53.78
24234;BME280;12365;43.554;1.388;2023-02-15T10:28:16;101045.00;;;17.01;53.30
24234;BME280;12365;43.554;1.388;2023-02-15T10:31:01;101045.63;;;17.16;53.26
24234;BME280;12365;43.554;1.388;2023-02-15T10:33:41;101045.44;;;17.32;52.96
24234;BME280;12365;43.554;1.388;2023-02-15T10:38:48;101052.16;;;17.47;52.32
24234;BME280;12365;43.554;1.388;2023-02-15T10:41:34;101049.53;;;17.47;52.27
24234;BME280;12365;43.554;1.388;2023-02-15T10:50:13;101058.03;;;17.61;51.76
24234;BME280;12365;43.554;1.388;2023-02-15T10:55:47;101050.88;;;17.58;51.45
24234;BME280;12365;43.554;1.388;2023-02-15T11:06:46;101043.38;;;17.69;50.74
24234;BME280;12365;43.554;1.388;2023-02-15T11:09:14;101038.28;;;17.73;50.50
24234;BME280;12365;43.554;1.388;2023-02-15T11:11:44;101037.50;;;17.76;50.43
24234;BME280;12365;43.554;1.388;2023-02-15T11:17:02;101036.63;;;17.98;50.07
24234;BME280;12365;43.554;1.388;2023-02-15T11:19:40;101033.25;;;18.02;49.96
24234;BME280;12365;43.554;1.388;2023-02-15T11:22:10;101033.72;;;18.14;49.54
24234;BME280;12365;43.554;1.388;2023-02-15T11:24:45;101043.78;;;18.25;49.60
24234;BME280;12365;43.554;1.388;2023-02-15T11:27:30;101041.41;;;18.31;49.29
24234;BME280;12365;43.554;1.388;2023-02-15T11:30:04;101036.66;;;18.46;49.09
24234;BME280;12365;43.554;1.388;2023-02-15T11:32:40;101035.13;;;18.53;49.13
24234;BME280;12365;43.554;1.388;2023-02-15T11:37:46;101046.56;;;18.52;48.67
24234;BME280;12365;43.554;1.388;2023-02-15T11:40:22;101046.03;;;18.38;48.60
24234;BME280;12365;43.554;1.388;2023-02-15T11:42:51;101043.06;;;18.29;48.64
24234;BME280;12365;43.554;1.388;2023-02-15T11:45:30;101046.00;;;18.36;48.58
24234;BME280;12365;43.554;1.388;2023-02-15T11:47:57;101045.25;;;18.40;48.44
24234;BME280;12365;43.554;1.388;2023-02-15T11:50:26;101049.03;;;18.47;48.24
24234;BME280;12365;43.554;1.388;2023-02-15T11:52:57;101037.72;;;18.51;48.01
24234;BME280;12365;43.554;1.388;2023-02-15T11:55:24;101034.59;;;18.63;47.70
24234;BME280;12365;43.554;1.388;2023-02-15T11:57:55;101022.69;;;18.74;47.71
24234;BME280;12365;43.554;1.388;2023-02-15T12:02:57;101028.88;;;18.75;47.04
24234;BME280;12365;43.554;1.388;2023-02-15T12:05:24;101029.00;;;18.78;47.13
24234;BME280;12365;43.554;1.388;2023-02-15T12:08:01;101026.84;;;18.92;47.16
24234;BME280;12365;43.554;1.388;2023-02-15T12:10:33;101027.31;;;19.05;46.99
24234;BME280;12365;43.554;1.388;2023-02-15T12:13:13;101020.63;;;19.17;46.69
24234;BME280;12365;43.554;1.388;2023-02-15T12:15:41;101016.50;;;19.25;46.53
24234;BME280;12365;43.554;1.388;2023-02-15T12:18:20;101013.22;;;19.34;46.41
24234;BME280;12365;43.554;1.388;2023-02-15T12:20:48;101011.59;;;19.37;45.88
24234;BME280;12365;43.554;1.388;2023-02-15T12:23:15;101015.41;;;19.47;45.82
24234;BME280;12365;43.554;1.388;2023-02-15T12:25:52;101012.25;;;19.59;46.06
24234;BME280;12365;43.554;1.388;2023-02-15T12:30:47;101006.16;;;19.61;45.55
24234;BME280;12365;43.554;1.388;2023-02-15T12:33:27;101004.47;;;19.63;45.37
24234;BME280;12365;43.554;1.388;2023-02-15T12:35:58;100997.38;;;19.62;45.22
24234;BME280;12365;43.554;1.388;2023-02-15T12:38:25;100989.38;;;19.61;45.14
24234;BME280;12365;43.554;1.388;2023-02-15T12:41:26;100994.81;;;19.65;45.20
24234;BME280;12365;43.554;1.388;2023-02-15T12:49:34;100996.19;;;19.53;44.98
24234;BME280;12365;43.554;1.388;2023-02-15T12:52:24;100996.28;;;19.56;45.11
24234;BME280;12365;43.554;1.388;2023-02-15T12:54:50;100990.28;;;19.61;44.98
24234;BME280;12365;43.554;1.388;2023-02-15T12:57:31;100979.91;;;19.67;44.89
24234;BME280;12365;43.554;1.388;2023-02-15T13:02:50;100984.50;;;19.73;44.66
24234;BME280;12365;43.554;1.388;2023-02-15T13:07:50;100983.72;;;19.77;43.92
24234;BME280;12365;43.554;1.388;2023-02-15T13:10:31;100990.28;;;19.61;44.35
24234;BME280;12365;43.554;1.388;2023-02-15T13:12:59;100980.00;;;19.43;44.49
24234;BME280;12365;43.554;1.388;2023-02-15T13:15:49;100977.59;;;19.22;44.19
24234;BME280;12365;43.554;1.388;2023-02-15T13:21:11;100985.59;;;18.98;44.53
24234;BME280;12365;43.554;1.388;2023-02-15T13:23:38;100979.25;;;18.92;44.50
24234;BME280;12365;43.554;1.388;2023-02-15T13:26:10;100971.94;;;18.84;44.46
24234;BME280;12365;43.554;1.388;2023-02-15T13:28:45;100974.25;;;18.75;44.61
24234;BME280;12365;43.554;1.388;2023-02-15T13:31:14;100967.88;;;18.70;44.61
24234;BME280;12365;43.554;1.388;2023-02-15T13:33:44;100976.50;;;18.65;44.78
24234;BME280;12365;43.554;1.388;2023-02-15T13:39:22;100973.13;;;18.69;44.63
24234;BME280;12365;43.554;1.388;2023-02-15T13:42:00;100967.22;;;18.76;44.47
24234;BME280;12365;43.554;1.388;2023-02-15T13:50:48;100963.16;;;18.86;44.46
24234;BME280;12365;43.554;1.388;2023-02-15T13:53:19;100964.25;;;18.92;44.35
24234;BME280;12365;43.554;1.388;2023-02-15T13:55:52;100957.94;;;18.89;44.25
24234;BME280;12365;43.554;1.388;2023-02-15T14:01:24;100961.78;;;18.97;44.29
24234;BME280;12365;43.554;1.388;2023-02-15T14:10:01;100941.81;;;19.07;43.93
24234;BME280;12365;43.554;1.388;2023-02-15T14:15:41;100945.38;;;19.09;43.71
24234;BME280;12365;43.554;1.388;2023-02-15T14:26:09;100952.66;;;19.16;43.69
24234;BME280;12365;43.554;1.388;2023-02-15T14:28:45;100962.31;;;19.14;43.73
24234;BME280;12365;43.554;1.388;2023-02-15T14:31:15;100962.22;;;19.11;43.67
24234;BME280;12365;43.554;1.388;2023-02-15T14:33:49;100957.81;;;19.11;43.51
24234;BME280;12365;43.554;1.388;2023-02-15T14:36:19;100955.13;;;19.10;43.46
24234;BME280;12365;43.554;1.388;2023-02-15T14:39:08;100955.97;;;19.09;43.47
24234;BME280;12365;43.554;1.388;2023-02-15T14:42:33;100950.63;;;19.07;43.46
24234;BME280;12365;43.554;1.388;2023-02-15T14:45:17;100964.44;;;18.98;43.32
24234;BME280;12365;43.554;1.388;2023-02-15T14:47:50;100955.38;;;18.90;43.39
24234;BME280;12365;43.554;1.388;2023-02-15T14:58:35;100972.75;;;18.58;43.71
24234;BME280;12365;43.554;1.388;2023-02-15T15:01:14;100967.44;;;18.58;43.50
24234;BME280;12365;43.554;1.388;2023-02-15T15:03:50;100973.59;;;18.57;43.59
24234;BME280;12365;43.554;1.388;2023-02-15T15:06:27;100973.66;;;18.58;43.40
24234;BME280;12365;43.554;1.388;2023-02-15T15:09:00;100959.53;;;18.58;43.41
24234;BME280;12365;43.554;1.388;2023-02-15T15:13:59;100967.78;;;18.67;43.38
24234;BME280;12365;43.554;1.388;2023-02-15T15:16:47;100972.38;;;18.73;43.12
24234;BME280;12365;43.554;1.388;2023-02-15T15:20:19;100969.88;;;18.76;43.24
24234;BME280;12365;43.554;1.388;2023-02-15T15:22:23;100972.50;;;18.76;43.32
24234;BME280;12365;43.554;1.388;2023-02-15T15:24:53;100971.47;;;18.72;43.25
24234;BME280;12365;43.554;1.388;2023-02-15T15:28:11;100972.34;;;18.71;43.53
24234;BME280;12365;43.554;1.388;2023-02-15T15:38:11;100971.69;;;18.53;43.90
24234;BME280;12365;43.554;1.388;2023-02-15T15:48:36;100973.22;;;18.46;43.52
24234;BME280;12365;43.554;1.388;2023-02-15T15:51:10;100977.50;;;18.42;43.64
24234;BME280;12365;43.554;1.388;2023-02-15T15:53:41;100976.50;;;18.39;43.93
24234;BME280;12365;43.554;1.388;2023-02-15T15:56:12;100975.44;;;18.34;43.70
24234;BME280;12365;43.554;1.388;2023-02-15T15:58:42;100976.94;;;18.27;43.75